FRA weather

Frankfurt am Main Airport
Frankfurt am Main, Hesse, Germany

Public forecast

Using degrees Celsius for public forecast. Weather courtesy of forecast.io.

Current aviation weather report (METAR) for Frankfurt am Main Airport

Retrieved 2020/01/26 20:20 UTC (0 seconds ago):

EDDF 262020Z 19004KT 2500 BR SCT002 BKN003 02/02 Q1018 BECMG 3000

Aviation forecast (TAF) for Frankfurt am Main Airport

Retrieved 2020/01/26 18:27 UTC (2 hours ago):

TAF TAF EDDF 261700Z 2618/2724 VRB03KT 0600 FG OVC002 TEMPO 2618/2624 0200 FG VV000 BECMG 2622/2701 18005KT TEMPO 2701/2706 1500 BCFG SCT002 BKN006 BECMG 2705/2707 19010KT FEW006 BKN020 PROB30 TEMPO 2707/2714 4000 -RA BKN014 PROB30 TEMPO 2709/2724 20015G25KT TEMPO 2714/2722 RA